sensor_id;sensor_type;location;lat;lon;timestamp;P1;durP1;ratioP1;P2;durP2;ratioP2
15192;SDS011;7697;51.630;7.484;2023-07-13T00:04:49;2.58;;;1.80;;
15192;SDS011;7697;51.630;7.484;2023-07-13T00:09:52;3.20;;;2.10;;
15192;SDS011;7697;51.630;7.484;2023-07-13T00:14:55;3.47;;;2.00;;
15192;SDS011;7697;51.630;7.484;2023-07-13T00:20:02;4.47;;;2.10;;
15192;SDS011;7697;51.630;7.484;2023-07-13T00:25:08;2.40;;;1.75;;
15192;SDS011;7697;51.630;7.484;2023-07-13T00:30:12;2.67;;;1.70;;
15192;SDS011;7697;51.630;7.484;2023-07-13T00:35:15;2.95;;;1.70;;
15192;SDS011;7697;51.630;7.484;2023-07-13T00:40:18;4.18;;;2.10;;
15192;SDS011;7697;51.630;7.484;2023-07-13T00:51:00;3.63;;;1.80;;
15192;SDS011;7697;51.630;7.484;2023-07-13T00:56:03;2.92;;;1.88;;
15192;SDS011;7697;51.630;7.484;2023-07-13T01:01:06;3.72;;;2.30;;
15192;SDS011;7697;51.630;7.484;2023-07-13T01:06:17;7.30;;;2.22;;
15192;SDS011;7697;51.630;7.484;2023-07-13T01:11:22;3.55;;;2.00;;
15192;SDS011;7697;51.630;7.484;2023-07-13T01:16:25;3.72;;;1.90;;
15192;SDS011;7697;51.630;7.484;2023-07-13T01:21:31;4.47;;;2.03;;
15192;SDS011;7697;51.630;7.484;2023-07-13T01:26:34;4.65;;;2.03;;
15192;SDS011;7697;51.630;7.484;2023-07-13T01:31:38;5.07;;;2.85;;
15192;SDS011;7697;51.630;7.484;2023-07-13T01:36:41;4.07;;;2.10;;
15192;SDS011;7697;51.630;7.484;2023-07-13T01:41:43;4.10;;;2.00;;
15192;SDS011;7697;51.630;7.484;2023-07-13T01:46:48;3.85;;;1.77;;
15192;SDS011;7697;51.630;7.484;2023-07-13T01:51:51;2.92;;;1.73;;
15192;SDS011;7697;51.630;7.484;2023-07-13T01:56:53;3.25;;;1.80;;
15192;SDS011;7697;51.630;7.484;2023-07-13T02:01:55;4.63;;;1.90;;
15192;SDS011;7697;51.630;7.484;2023-07-13T02:07:07;2.60;;;1.67;;
15192;SDS011;7697;51.630;7.484;2023-07-13T02:12:10;3.15;;;1.58;;
15192;SDS011;7697;51.630;7.484;2023-07-13T02:17:11;3.33;;;1.48;;
15192;SDS011;7697;51.630;7.484;2023-07-13T02:22:15;4.18;;;1.70;;
15192;SDS011;7697;51.630;7.484;2023-07-13T02:27:17;2.95;;;1.60;;
15192;SDS011;7697;51.630;7.484;2023-07-13T02:32:18;2.60;;;1.45;;
15192;SDS011;7697;51.630;7.484;2023-07-13T02:37:22;2.35;;;1.52;;
15192;SDS011;7697;51.630;7.484;2023-07-13T02:42:24;2.70;;;1.40;;
15192;SDS011;7697;51.630;7.484;2023-07-13T02:47:26;2.88;;;1.50;;
15192;SDS011;7697;51.630;7.484;2023-07-13T02:52:29;3.40;;;1.42;;
15192;SDS011;7697;51.630;7.484;2023-07-13T02:57:31;2.88;;;1.70;;
15192;SDS011;7697;51.630;7.484;2023-07-13T03:02:34;4.15;;;1.75;;
15192;SDS011;7697;51.630;7.484;2023-07-13T03:07:41;4.82;;;2.40;;
15192;SDS011;7697;51.630;7.484;2023-07-13T03:12:43;4.18;;;1.70;;
15192;SDS011;7697;51.630;7.484;2023-07-13T03:17:45;3.05;;;1.55;;
15192;SDS011;7697;51.630;7.484;2023-07-13T03:22:49;2.40;;;1.40;;
15192;SDS011;7697;51.630;7.484;2023-07-13T03:27:51;3.88;;;1.67;;
15192;SDS011;7697;51.630;7.484;2023-07-13T03:32:53;2.53;;;1.58;;
15192;SDS011;7697;51.630;7.484;2023-07-13T03:37:56;4.60;;;1.90;;
15192;SDS011;7697;51.630;7.484;2023-07-13T03:42:59;2.05;;;1.50;;
15192;SDS011;7697;51.630;7.484;2023-07-13T03:48:02;3.25;;;1.75;;
15192;SDS011;7697;51.630;7.484;2023-07-13T03:53:06;5.97;;;1.95;;
15192;SDS011;7697;51.630;7.484;2023-07-13T03:58:28;3.75;;;2.05;;
15192;SDS011;7697;51.630;7.484;2023-07-13T04:03:32;3.58;;;1.48;;
15192;SDS011;7697;51.630;7.484;2023-07-13T04:08:38;3.83;;;1.58;;
15192;SDS011;7697;51.630;7.484;2023-07-13T04:13:40;4.25;;;1.52;;
15192;SDS011;7697;51.630;7.484;2023-07-13T04:18:42;2.00;;;1.50;;
15192;SDS011;7697;51.630;7.484;2023-07-13T04:23:46;3.83;;;1.60;;
15192;SDS011;7697;51.630;7.484;2023-07-13T04:28:56;4.07;;;1.98;;
15192;SDS011;7697;51.630;7.484;2023-07-13T04:34:12;4.18;;;2.08;;
15192;SDS011;7697;51.630;7.484;2023-07-13T04:39:18;2.95;;;1.90;;
15192;SDS011;7697;51.630;7.484;2023-07-13T04:44:20;3.28;;;2.00;;
15192;SDS011;7697;51.630;7.484;2023-07-13T04:49:22;3.13;;;1.58;;
15192;SDS011;7697;51.630;7.484;2023-07-13T04:54:25;5.15;;;1.83;;
15192;SDS011;7697;51.630;7.484;2023-07-13T04:59:27;3.55;;;1.70;;
15192;SDS011;7697;51.630;7.484;2023-07-13T05:04:29;3.05;;;1.95;;
15192;SDS011;7697;51.630;7.484;2023-07-13T05:09:32;2.85;;;1.65;;
15192;SDS011;7697;51.630;7.484;2023-07-13T05:14:34;3.88;;;1.65;;
15192;SDS011;7697;51.630;7.484;2023-07-13T05:19:36;3.00;;;1.88;;
15192;SDS011;7697;51.630;7.484;2023-07-13T05:24:39;5.78;;;1.90;;
15192;SDS011;7697;51.630;7.484;2023-07-13T05:29:41;3.67;;;1.95;;
15192;SDS011;7697;51.630;7.484;2023-07-13T05:34:43;3.03;;;1.70;;
15192;SDS011;7697;51.630;7.484;2023-07-13T05:39:46;4.35;;;1.80;;
15192;SDS011;7697;51.630;7.484;2023-07-13T05:44:48;4.25;;;1.70;;
15192;SDS011;7697;51.630;7.484;2023-07-13T05:49:52;4.40;;;2.00;;
15192;SDS011;7697;51.630;7.484;2023-07-13T05:54:56;3.45;;;1.80;;
15192;SDS011;7697;51.630;7.484;2023-07-13T05:59:58;4.32;;;1.77;;
15192;SDS011;7697;51.630;7.484;2023-07-13T06:04:59;4.90;;;1.88;;
15192;SDS011;7697;51.630;7.484;2023-07-13T06:10:03;3.65;;;1.88;;
15192;SDS011;7697;51.630;7.484;2023-07-13T06:15:05;5.50;;;1.98;;
15192;SDS011;7697;51.630;7.484;2023-07-13T06:20:08;5.07;;;2.10;;
15192;SDS011;7697;51.630;7.484;2023-07-13T06:25:12;6.80;;;2.28;;
15192;SDS011;7697;51.630;7.484;2023-07-13T06:30:14;7.28;;;2.20;;
15192;SDS011;7697;51.630;7.484;2023-07-13T06:35:16;5.43;;;2.30;;
15192;SDS011;7697;51.630;7.484;2023-07-13T06:40:19;5.20;;;2.10;;
15192;SDS011;7697;51.630;7.484;2023-07-13T06:45:22;4.35;;;2.20;;
15192;SDS011;7697;51.630;7.484;2023-07-13T06:50:27;4.43;;;2.55;;
15192;SDS011;7697;51.630;7.484;2023-07-13T06:55:32;5.60;;;2.65;;
15192;SDS011;7697;51.630;7.484;2023-07-13T07:00:34;7.18;;;3.00;;
15192;SDS011;7697;51.630;7.484;2023-07-13T07:05:36;4.85;;;2.42;;
15192;SDS011;7697;51.630;7.484;2023-07-13T07:10:40;6.68;;;2.78;;
15192;SDS011;7697;51.630;7.484;2023-07-13T07:15:41;5.75;;;2.40;;
15192;SDS011;7697;51.630;7.484;2023-07-13T07:20:43;5.40;;;2.47;;
15192;SDS011;7697;51.630;7.484;2023-07-13T07:25:46;7.18;;;2.67;;
15192;SDS011;7697;51.630;7.484;2023-07-13T07:30:49;5.80;;;2.63;;
15192;SDS011;7697;51.630;7.484;2023-07-13T07:35:54;7.47;;;2.92;;
15192;SDS011;7697;51.630;7.484;2023-07-13T07:40:57;4.90;;;2.45;;
15192;SDS011;7697;51.630;7.484;2023-07-13T07:45:59;5.60;;;2.83;;
15192;SDS011;7697;51.630;7.484;2023-07-13T07:51:01;4.93;;;2.47;;
15192;SDS011;7697;51.630;7.484;2023-07-13T07:56:04;7.18;;;2.55;;
15192;SDS011;7697;51.630;7.484;2023-07-13T08:01:07;7.90;;;2.38;;
15192;SDS011;7697;51.630;7.484;2023-07-13T08:06:09;7.63;;;3.03;;
15192;SDS011;7697;51.630;7.484;2023-07-13T08:11:12;4.53;;;2.40;;
15192;SDS011;7697;51.630;7.484;2023-07-13T08:16:14;6.70;;;2.83;;
15192;SDS011;7697;51.630;7.484;2023-07-13T08:21:16;6.70;;;2.70;;
15192;SDS011;7697;51.630;7.484;2023-07-13T08:26:21;5.30;;;2.45;;
15192;SDS011;7697;51.630;7.484;2023-07-13T08:31:23;4.75;;;2.50;;
15192;SDS011;7697;51.630;7.484;2023-07-13T08:36:25;6.40;;;2.63;;
15192;SDS011;7697;51.630;7.484;2023-07-13T08:41:29;4.78;;;2.15;;
15192;SDS011;7697;51.630;7.484;2023-07-13T08:46:33;3.85;;;2.35;;
15192;SDS011;7697;51.630;7.484;2023-07-13T08:51:39;4.05;;;2.20;;
15192;SDS011;7697;51.630;7.484;2023-07-13T08:56:46;3.80;;;1.90;;
15192;SDS011;7697;51.630;7.484;2023-07-13T09:01:56;4.10;;;2.10;;
15192;SDS011;7697;51.630;7.484;2023-07-13T09:07:05;4.10;;;2.30;;
15192;SDS011;7697;51.630;7.484;2023-07-13T09:12:17;5.95;;;2.50;;
15192;SDS011;7697;51.630;7.484;2023-07-13T09:17:25;3.20;;;2.00;;
15192;SDS011;7697;51.630;7.484;2023-07-13T09:22:31;3.97;;;2.30;;
15192;SDS011;7697;51.630;7.484;2023-07-13T09:27:39;4.38;;;1.92;;
15192;SDS011;7697;51.630;7.484;2023-07-13T09:32:45;5.20;;;2.58;;
15192;SDS011;7697;51.630;7.484;2023-07-13T09:37:49;4.22;;;2.35;;
15192;SDS011;7697;51.630;7.484;2023-07-13T09:42:54;5.93;;;2.35;;
15192;SDS011;7697;51.630;7.484;2023-07-13T09:47:59;5.28;;;2.58;;
15192;SDS011;7697;51.630;7.484;2023-07-13T09:53:09;4.53;;;2.13;;
15192;SDS011;7697;51.630;7.484;2023-07-13T09:58:18;4.18;;;2.10;;
15192;SDS011;7697;51.630;7.484;2023-07-13T10:03:23;2.92;;;1.67;;
15192;SDS011;7697;51.630;7.484;2023-07-13T10:08:27;7.75;;;2.10;;
15192;SDS011;7697;51.630;7.484;2023-07-13T10:13:36;3.25;;;1.80;;
15192;SDS011;7697;51.630;7.484;2023-07-13T10:18:46;4.97;;;2.10;;
15192;SDS011;7697;51.630;7.484;2023-07-13T10:23:50;4.22;;;2.25;;
15192;SDS011;7697;51.630;7.484;2023-07-13T10:28:59;5.60;;;2.40;;
15192;SDS011;7697;51.630;7.484;2023-07-13T10:34:07;5.38;;;2.42;;
15192;SDS011;7697;51.630;7.484;2023-07-13T10:39:13;5.22;;;2.50;;
15192;SDS011;7697;51.630;7.484;2023-07-13T10:44:22;3.22;;;2.03;;
15192;SDS011;7697;51.630;7.484;2023-07-13T10:49:28;4.95;;;2.60;;
15192;SDS011;7697;51.630;7.484;2023-07-13T10:54:32;4.15;;;2.22;;
15192;SDS011;7697;51.630;7.484;2023-07-13T10:59:37;3.15;;;2.17;;
15192;SDS011;7697;51.630;7.484;2023-07-13T11:04:42;3.60;;;2.00;;
15192;SDS011;7697;51.630;7.484;2023-07-13T11:09:49;5.32;;;2.50;;
15192;SDS011;7697;51.630;7.484;2023-07-13T11:20:20;4.50;;;2.60;;
15192;SDS011;7697;51.630;7.484;2023-07-13T11:25:35;3.78;;;1.98;;
15192;SDS011;7697;51.630;7.484;2023-07-13T11:30:40;4.75;;;2.40;;
15192;SDS011;7697;51.630;7.484;2023-07-13T11:35:52;5.70;;;2.08;;
15192;SDS011;7697;51.630;7.484;2023-07-13T11:41:01;4.88;;;2.13;;
15192;SDS011;7697;51.630;7.484;2023-07-13T11:46:14;5.75;;;2.65;;
15192;SDS011;7697;51.630;7.484;2023-07-13T11:51:19;3.25;;;2.30;;
15192;SDS011;7697;51.630;7.484;2023-07-13T11:56:23;5.28;;;2.33;;
15192;SDS011;7697;51.630;7.484;2023-07-13T12:01:30;4.03;;;2.15;;
15192;SDS011;7697;51.630;7.484;2023-07-13T12:06:34;5.40;;;2.28;;
15192;SDS011;7697;51.630;7.484;2023-07-13T12:11:40;2.53;;;1.90;;
15192;SDS011;7697;51.630;7.484;2023-07-13T12:16:45;4.47;;;1.90;;
15192;SDS011;7697;51.630;7.484;2023-07-13T12:21:53;3.65;;;1.90;;
15192;SDS011;7697;51.630;7.484;2023-07-13T12:26:59;3.60;;;1.90;;
15192;SDS011;7697;51.630;7.484;2023-07-13T12:32:07;2.92;;;1.77;;
15192;SDS011;7697;51.630;7.484;2023-07-13T12:37:11;3.58;;;1.80;;
15192;SDS011;7697;51.630;7.484;2023-07-13T12:42:18;3.85;;;2.08;;
15192;SDS011;7697;51.630;7.484;2023-07-13T12:47:25;4.45;;;1.83;;
15192;SDS011;7697;51.630;7.484;2023-07-13T12:52:28;4.20;;;1.98;;
15192;SDS011;7697;51.630;7.484;2023-07-13T12:57:38;3.47;;;2.00;;
15192;SDS011;7697;51.630;7.484;2023-07-13T13:02:43;3.45;;;1.90;;
15192;SDS011;7697;51.630;7.484;2023-07-13T13:07:45;2.72;;;1.80;;
15192;SDS011;7697;51.630;7.484;2023-07-13T13:12:48;3.38;;;1.92;;
15192;SDS011;7697;51.630;7.484;2023-07-13T13:17:53;3.08;;;1.88;;
15192;SDS011;7697;51.630;7.484;2023-07-13T13:22:55;4.07;;;2.40;;
15192;SDS011;7697;51.630;7.484;2023-07-13T13:27:57;2.63;;;1.83;;
15192;SDS011;7697;51.630;7.484;2023-07-13T13:33:01;2.95;;;2.00;;
15192;SDS011;7697;51.630;7.484;2023-07-13T13:38:04;32.80;;;3.78;;
15192;SDS011;7697;51.630;7.484;2023-07-13T13:43:15;8.80;;;2.35;;
15192;SDS011;7697;51.630;7.484;2023-07-13T13:48:19;5.25;;;2.33;;
15192;SDS011;7697;51.630;7.484;2023-07-13T13:53:30;4.60;;;2.10;;
15192;SDS011;7697;51.630;7.484;2023-07-13T13:58:32;3.50;;;1.90;;
15192;SDS011;7697;51.630;7.484;2023-07-13T14:03:35;3.28;;;1.95;;
15192;SDS011;7697;51.630;7.484;2023-07-13T14:08:40;3.35;;;1.73;;
15192;SDS011;7697;51.630;7.484;2023-07-13T14:13:58;3.90;;;1.70;;
15192;SDS011;7697;51.630;7.484;2023-07-13T14:19:05;3.33;;;2.03;;
15192;SDS011;7697;51.630;7.484;2023-07-13T14:24:06;2.08;;;1.85;;
15192;SDS011;7697;51.630;7.484;2023-07-13T14:29:11;1.92;;;1.73;;
15192;SDS011;7697;51.630;7.484;2023-07-13T14:34:16;2.35;;;1.60;;
15192;SDS011;7697;51.630;7.484;2023-07-13T14:39:18;2.20;;;1.80;;
15192;SDS011;7697;51.630;7.484;2023-07-13T14:44:23;2.75;;;1.70;;
15192;SDS011;7697;51.630;7.484;2023-07-13T14:49:28;2.58;;;1.88;;
15192;SDS011;7697;51.630;7.484;2023-07-13T14:54:32;2.63;;;1.77;;
15192;SDS011;7697;51.630;7.484;2023-07-13T14:59:34;1.85;;;1.65;;
15192;SDS011;7697;51.630;7.484;2023-07-13T15:04:37;1.75;;;1.63;;
15192;SDS011;7697;51.630;7.484;2023-07-13T15:09:39;1.75;;;1.52;;
15192;SDS011;7697;51.630;7.484;2023-07-13T15:14:41;1.92;;;1.70;;
15192;SDS011;7697;51.630;7.484;2023-07-13T15:19:45;1.85;;;1.60;;
15192;SDS011;7697;51.630;7.484;2023-07-13T15:24:47;2.90;;;1.90;;
15192;SDS011;7697;51.630;7.484;2023-07-13T15:29:49;1.80;;;1.70;;
15192;SDS011;7697;51.630;7.484;2023-07-13T15:34:53;2.15;;;1.80;;
15192;SDS011;7697;51.630;7.484;2023-07-13T15:39:54;2.40;;;2.17;;
15192;SDS011;7697;51.630;7.484;2023-07-13T15:44:56;3.13;;;1.95;;
15192;SDS011;7697;51.630;7.484;2023-07-13T15:50:03;3.13;;;2.20;;
15192;SDS011;7697;51.630;7.484;2023-07-13T15:55:05;4.13;;;2.05;;
15192;SDS011;7697;51.630;7.484;2023-07-13T16:00:14;3.30;;;2.30;;
15192;SDS011;7697;51.630;7.484;2023-07-13T16:05:21;3.55;;;2.13;;
15192;SDS011;7697;51.630;7.484;2023-07-13T16:10:27;3.53;;;2.10;;
15192;SDS011;7697;51.630;7.484;2023-07-13T16:15:32;3.70;;;1.92;;
15192;SDS011;7697;51.630;7.484;2023-07-13T16:20:36;3.00;;;2.28;;
15192;SDS011;7697;51.630;7.484;2023-07-13T16:25:37;2.42;;;2.20;;
15192;SDS011;7697;51.630;7.484;2023-07-13T16:30:40;3.08;;;2.40;;
15192;SDS011;7697;51.630;7.484;2023-07-13T16:57:22;1.85;;;1.60;;
15192;SDS011;7697;51.630;7.484;2023-07-13T17:02:32;2.45;;;1.80;;
15192;SDS011;7697;51.630;7.484;2023-07-13T17:07:36;2.95;;;1.80;;
15192;SDS011;7697;51.630;7.484;2023-07-13T17:12:39;2.85;;;1.80;;
15192;SDS011;7697;51.630;7.484;2023-07-13T17:17:41;2.28;;;1.50;;
15192;SDS011;7697;51.630;7.484;2023-07-13T17:22:44;2.28;;;1.77;;
15192;SDS011;7697;51.630;7.484;2023-07-13T17:27:48;2.95;;;2.00;;
15192;SDS011;7697;51.630;7.484;2023-07-13T17:32:50;2.60;;;1.95;;
15192;SDS011;7697;51.630;7.484;2023-07-13T17:37:53;3.55;;;2.20;;
15192;SDS011;7697;51.630;7.484;2023-07-13T17:42:57;3.38;;;1.70;;
15192;SDS011;7697;51.630;7.484;2023-07-13T17:47:59;2.88;;;1.70;;
15192;SDS011;7697;51.630;7.484;2023-07-13T17:53:08;2.47;;;1.90;;
15192;SDS011;7697;51.630;7.484;2023-07-13T17:58:15;3.88;;;2.10;;
15192;SDS011;7697;51.630;7.484;2023-07-13T18:03:19;1.90;;;1.70;;
15192;SDS011;7697;51.630;7.484;2023-07-13T18:08:25;2.28;;;1.70;;
15192;SDS011;7697;51.630;7.484;2023-07-13T18:13:30;3.10;;;2.10;;
15192;SDS011;7697;51.630;7.484;2023-07-13T18:18:39;3.10;;;2.10;;
15192;SDS011;7697;51.630;7.484;2023-07-13T18:23:41;3.80;;;2.22;;
15192;SDS011;7697;51.630;7.484;2023-07-13T18:28:44;3.85;;;2.47;;
15192;SDS011;7697;51.630;7.484;2023-07-13T18:33:48;3.65;;;2.13;;
15192;SDS011;7697;51.630;7.484;2023-07-13T18:38:52;3.22;;;2.30;;
15192;SDS011;7697;51.630;7.484;2023-07-13T18:43:56;2.45;;;1.85;;
15192;SDS011;7697;51.630;7.484;2023-07-13T18:48:57;3.15;;;2.38;;
15192;SDS011;7697;51.630;7.484;2023-07-13T18:54:00;4.03;;;2.83;;
15192;SDS011;7697;51.630;7.484;2023-07-13T18:59:08;2.63;;;2.30;;
15192;SDS011;7697;51.630;7.484;2023-07-13T19:04:25;2.95;;;2.30;;
15192;SDS011;7697;51.630;7.484;2023-07-13T19:09:37;3.22;;;2.45;;
15192;SDS011;7697;51.630;7.484;2023-07-13T19:14:41;3.03;;;2.70;;
15192;SDS011;7697;51.630;7.484;2023-07-13T19:19:47;4.07;;;3.17;;
15192;SDS011;7697;51.630;7.484;2023-07-13T19:24:49;3.05;;;2.40;;
15192;SDS011;7697;51.630;7.484;2023-07-13T19:30:00;3.22;;;2.58;;
15192;SDS011;7697;51.630;7.484;2023-07-13T19:35:08;3.50;;;2.85;;
15192;SDS011;7697;51.630;7.484;2023-07-13T19:40:16;3.20;;;2.40;;
15192;SDS011;7697;51.630;7.484;2023-07-13T19:45:24;3.92;;;2.47;;
15192;SDS011;7697;51.630;7.484;2023-07-13T19:50:28;3.63;;;2.63;;
15192;SDS011;7697;51.630;7.484;2023-07-13T19:55:33;2.30;;;2.03;;
15192;SDS011;7697;51.630;7.484;2023-07-13T20:00:37;3.15;;;2.30;;
15192;SDS011;7697;51.630;7.484;2023-07-13T20:05:41;2.55;;;2.28;;
15192;SDS011;7697;51.630;7.484;2023-07-13T20:10:49;4.47;;;2.63;;
15192;SDS011;7697;51.630;7.484;2023-07-13T20:15:53;3.47;;;2.92;;
15192;SDS011;7697;51.630;7.484;2023-07-13T20:20:56;4.90;;;2.92;;
15192;SDS011;7697;51.630;7.484;2023-07-13T20:25:58;4.72;;;2.75;;
15192;SDS011;7697;51.630;7.484;2023-07-13T20:31:07;4.25;;;2.55;;
15192;SDS011;7697;51.630;7.484;2023-07-13T20:36:16;4.00;;;2.80;;
15192;SDS011;7697;51.630;7.484;2023-07-13T20:41:18;3.28;;;2.67;;
15192;SDS011;7697;51.630;7.484;2023-07-13T20:46:21;3.45;;;2.67;;
15192;SDS011;7697;51.630;7.484;2023-07-13T20:51:25;4.65;;;2.85;;
15192;SDS011;7697;51.630;7.484;2023-07-13T20:56:29;4.32;;;2.80;;
15192;SDS011;7697;51.630;7.484;2023-07-13T21:01:33;3.13;;;2.60;;
15192;SDS011;7697;51.630;7.484;2023-07-13T21:06:37;2.80;;;2.50;;
15192;SDS011;7697;51.630;7.484;2023-07-13T21:11:39;3.40;;;2.40;;
15192;SDS011;7697;51.630;7.484;2023-07-13T21:16:42;3.70;;;2.72;;
15192;SDS011;7697;51.630;7.484;2023-07-13T21:21:43;3.92;;;2.50;;
15192;SDS011;7697;51.630;7.484;2023-07-13T21:26:45;3.72;;;2.55;;
15192;SDS011;7697;51.630;7.484;2023-07-13T21:31:48;5.03;;;2.33;;
15192;SDS011;7697;51.630;7.484;2023-07-13T21:36:51;3.28;;;2.40;;
15192;SDS011;7697;51.630;7.484;2023-07-13T21:41:55;2.75;;;2.40;;
15192;SDS011;7697;51.630;7.484;2023-07-13T21:46:58;3.17;;;2.22;;
15192;SDS011;7697;51.630;7.484;2023-07-13T21:52:01;3.00;;;2.70;;
15192;SDS011;7697;51.630;7.484;2023-07-13T21:57:04;3.50;;;2.15;;
15192;SDS011;7697;51.630;7.484;2023-07-13T22:02:09;3.03;;;2.47;;
15192;SDS011;7697;51.630;7.484;2023-07-13T22:07:12;3.97;;;2.65;;
15192;SDS011;7697;51.630;7.484;2023-07-13T22:12:15;2.88;;;2.50;;
15192;SDS011;7697;51.630;7.484;2023-07-13T22:17:18;3.58;;;2.47;;
15192;SDS011;7697;51.630;7.484;2023-07-13T22:22:19;2.75;;;2.20;;
15192;SDS011;7697;51.630;7.484;2023-07-13T22:27:21;2.55;;;2.00;;
15192;SDS011;7697;51.630;7.484;2023-07-13T22:32:25;3.33;;;2.33;;
15192;SDS011;7697;51.630;7.484;2023-07-13T22:37:27;3.42;;;2.35;;
15192;SDS011;7697;51.630;7.484;2023-07-13T22:42:28;2.50;;;2.30;;
15192;SDS011;7697;51.630;7.484;2023-07-13T22:47:32;3.35;;;2.40;;
15192;SDS011;7697;51.630;7.484;2023-07-13T22:52:33;2.90;;;2.22;;
15192;SDS011;7697;51.630;7.484;2023-07-13T22:57:36;2.53;;;2.22;;
15192;SDS011;7697;51.630;7.484;2023-07-13T23:02:39;3.33;;;2.35;;
15192;SDS011;7697;51.630;7.484;2023-07-13T23:07:41;3.65;;;2.53;;
15192;SDS011;7697;51.630;7.484;2023-07-13T23:12:43;3.33;;;2.33;;
15192;SDS011;7697;51.630;7.484;2023-07-13T23:17:46;4.18;;;2.60;;
15192;SDS011;7697;51.630;7.484;2023-07-13T23:22:50;2.95;;;2.45;;
15192;SDS011;7697;51.630;7.484;2023-07-13T23:27:52;4.47;;;2.60;;
15192;SDS011;7697;51.630;7.484;2023-07-13T23:32:58;4.22;;;2.72;;
15192;SDS011;7697;51.630;7.484;2023-07-13T23:38:02;3.40;;;2.40;;
15192;SDS011;7697;51.630;7.484;2023-07-13T23:43:03;6.05;;;2.65;;
15192;SDS011;7697;51.630;7.484;2023-07-13T23:48:08;3.28;;;2.38;;
15192;SDS011;7697;51.630;7.484;2023-07-13T23:53:13;4.07;;;2.60;;
15192;SDS011;7697;51.630;7.484;2023-07-13T23:58:16;3.05;;;2.33;;
